Braganca Paulista, Brazil
Current Conditions -  °F | °C
As of 10:00 PM on Saturday 25 Oct 2014 (Local Time) from SBGR Reporting Station
Haze Haze  
Wind Chill: 66°   Ceiling: Unl
Heat Index: 66°   Visibility: 3mi
Dew Point: 64°   Wind: 1mph
Humidity: 94%   Direction: 190°S
Pressure: 30.03"   Gusts: NA
Location:  22.95°S, 46.55°W
Report Text: SBGR 260000Z 19001KT 5000 BR SCT011 19/18 Q1017
Loading
Personal Weather Stations






























Interactive Weather Map
Tropical Storm Tracking
New forecast layout! Learn more

10-Day Weather Forecast

Advertisements
Track Severe Weather on mobile